Time;durP1;ratioP1;P1;durP2;ratioP2;P2;SDS_P1;SDS_P2;PMS_P1;PMS_P2;Temp;Humidity;BMP_temperature;BMP_pressure;BME280_temperature;BME280_humidity;BME280_pressure;Samples;Min_cycle;Max_cycle;Signal;HPM_P1;HPM_P2
2022/07/29 00:00:38;;;;;;;1.73;0.40;;;16.80;89.40;;;;;;5009615;28;20053;-38
2022/07/29 00:03:03;;;;;;;2.10;0.50;;;16.80;89.30;;;;;;5011246;28;20249;-38
2022/07/29 00:05:29;;;;;;;0.50;0.30;;;16.80;89.50;;;;;;5013918;28;20450;-38
2022/07/29 00:07:55;;;;;;;3.30;0.57;;;16.80;89.30;;;;;;5013775;28;20085;-39
2022/07/29 00:10:21;;;;;;;1.35;0.50;;;16.80;89.20;;;;;;5011489;28;20173;-38
2022/07/29 00:12:46;;;;;;;1.50;0.30;;;16.70;89.30;;;;;;5013691;28;20038;-41
2022/07/29 00:15:13;;;;;;;2.13;0.60;;;16.70;89.40;;;;;;5013796;28;20173;-38
2022/07/29 00:17:39;;;;;;;1.75;0.40;;;16.70;89.50;;;;;;5012947;28;20046;-38
2022/07/29 00:20:05;;;;;;;0.63;0.35;;;16.70;89.80;;;;;;5013795;28;20055;-38
2022/07/29 00:22:31;;;;;;;1.33;0.38;;;16.70;89.90;;;;;;5013252;28;20062;-38
2022/07/29 00:24:56;;;;;;;1.88;0.50;;;16.70;89.90;;;;;;5010621;28;20037;-38
2022/07/29 00:27:22;;;;;;;1.38;0.47;;;16.70;90.00;;;;;;5025534;28;20145;-38
2022/07/29 00:29:48;;;;;;;1.45;0.50;;;16.70;90.00;;;;;;5013762;28;20083;-38
2022/07/29 00:32:13;;;;;;;1.50;0.40;;;16.60;90.10;;;;;;5013321;28;20049;-38
2022/07/29 00:37:24;;;;;;;1.17;0.47;;;16.60;90.20;;;;;;5013240;28;20046;-38
2022/07/29 00:39:50;;;;;;;1.85;0.52;;;16.60;90.20;;;;;;5004016;28;20204;-38
2022/07/29 00:42:16;;;;;;;1.58;0.52;;;16.50;90.20;;;;;;5008395;28;20526;-38
2022/07/29 00:44:42;;;;;;;2.20;0.50;;;16.50;90.30;;;;;;5006734;28;20448;-38
2022/07/29 00:47:09;;;;;;;1.23;0.60;;;16.50;90.30;;;;;;5012897;28;20451;-38
2022/07/29 00:49:36;;;;;;;1.48;0.57;;;16.50;90.50;;;;;;5013330;28;20038;-38
2022/07/29 00:52:06;;;;;;;1.83;0.50;;;16.50;90.20;;;;;;5012753;28;20108;-38
2022/07/29 00:54:33;;;;;;;1.60;0.50;;;16.50;90.20;;;;;;5008989;28;20491;-38
2022/07/29 00:56:59;;;;;;;1.33;0.52;;;16.50;90.20;;;;;;5011064;28;20133;-38
2022/07/29 00:59:27;;;;;;;2.35;0.55;;;16.50;90.20;;;;;;5000351;28;20518;-38
2022/07/29 01:01:53;;;;;;;2.13;0.80;;;16.50;90.20;;;;;;5012513;28;20052;-38
2022/07/29 01:04:20;;;;;;;1.80;0.50;;;16.50;90.40;;;;;;5011875;28;20036;-38
2022/07/29 01:06:48;;;;;;;3.50;0.50;;;16.50;90.40;;;;;;5012469;28;20052;-38
2022/07/29 01:09:14;;;;;;;1.77;0.70;;;16.50;90.40;;;;;;5012782;28;20494;-38
2022/07/29 01:11:41;;;;;;;1.00;0.50;;;16.50;90.30;;;;;;5011019;28;20044;-38
2022/07/29 01:14:08;;;;;;;1.55;0.40;;;16.50;90.40;;;;;;5010738;28;20041;-38
2022/07/29 01:16:46;;;;;;;1.52;0.60;;;16.50;90.40;;;;;;5006861;28;20057;-39
2022/07/29 01:19:50;;;;;;;1.77;0.77;;;16.50;90.50;;;;;;5012330;28;20081;-38
2022/07/29 01:22:25;;;;;;;1.42;0.60;;;16.40;90.70;;;;;;5012086;28;20103;-38
2022/07/29 01:25:10;;;;;;;1.27;0.45;;;16.40;90.60;;;;;;5003089;28;20045;-38
2022/07/29 01:27:55;;;;;;;2.90;0.75;;;16.30;90.50;;;;;;5012038;28;20046;-38
2022/07/29 01:30:24;;;;;;;1.92;0.70;;;16.30;91.00;;;;;;5012361;28;20041;-37
2022/07/29 01:32:55;;;;;;;1.92;0.80;;;16.30;90.70;;;;;;5005066;28;20048;-40
2022/07/29 01:35:41;;;;;;;2.58;0.68;;;16.30;90.80;;;;;;5012458;28;20041;-38
2022/07/29 01:38:37;;;;;;;1.45;0.60;;;16.30;91.10;;;;;;5011376;28;20040;-38
2022/07/29 01:41:12;;;;;;;2.70;0.50;;;16.30;91.10;;;;;;4994642;28;20061;-38
2022/07/29 01:43:50;;;;;;;1.48;0.55;;;16.30;90.70;;;;;;5026716;28;20049;-38
2022/07/29 01:46:24;;;;;;;2.30;0.70;;;16.20;90.90;;;;;;5009399;28;20505;-38
2022/07/29 01:48:58;;;;;;;1.77;0.82;;;16.20;90.80;;;;;;5011017;28;20529;-38
2022/07/29 01:51:28;;;;;;;1.48;0.60;;;16.20;91.00;;;;;;5003884;28;20043;-39
2022/07/29 01:54:06;;;;;;;2.00;0.65;;;16.20;90.90;;;;;;5007413;28;20120;-38
2022/07/29 01:56:33;;;;;;;3.65;0.60;;;16.20;91.10;;;;;;5009016;28;20099;-38
2022/07/29 01:59:00;;;;;;;1.98;0.73;;;16.20;91.00;;;;;;5007832;28;20038;-39
2022/07/29 02:01:27;;;;;;;2.40;0.60;;;16.20;91.20;;;;;;5011738;28;20045;-38
2022/07/29 02:03:54;;;;;;;1.20;0.85;;;16.10;91.20;;;;;;5010006;28;20038;-38
2022/07/29 02:06:22;;;;;;;2.70;0.80;;;16.10;91.40;;;;;;5009698;28;20045;-38
2022/07/29 02:08:49;;;;;;;1.52;0.60;;;16.10;91.70;;;;;;5011846;28;20038;-38
2022/07/29 02:11:15;;;;;;;1.33;0.68;;;16.00;91.70;;;;;;5006972;28;20134;-39
2022/07/29 02:13:42;;;;;;;3.17;0.80;;;16.00;91.70;;;;;;5005055;28;20382;-38
2022/07/29 02:16:10;;;;;;;1.90;0.68;;;16.00;91.70;;;;;;5010913;28;20168;-38
2022/07/29 02:18:39;;;;;;;2.35;0.82;;;16.00;91.80;;;;;;4999828;28;20172;-37
2022/07/29 02:21:05;;;;;;;1.67;0.93;;;16.00;91.90;;;;;;5004720;28;20057;-39
2022/07/29 02:23:32;;;;;;;1.85;0.65;;;15.90;91.90;;;;;;5004058;28;20060;-39
2022/07/29 02:25:59;;;;;;;2.85;0.70;;;16.00;91.80;;;;;;5011046;28;20038;-39
2022/07/29 02:28:27;;;;;;;1.77;0.43;;;15.90;91.90;;;;;;5011331;28;20500;-39
2022/07/29 02:30:59;;;;;;;2.97;0.70;;;15.90;92.00;;;;;;5011138;28;20034;-39
2022/07/29 02:33:26;;;;;;;1.10;0.70;;;15.90;92.10;;;;;;5011315;28;20471;-38
2022/07/29 02:35:54;;;;;;;1.70;0.68;;;16.00;92.10;;;;;;5011086;28;20284;-37
2022/07/29 02:41:11;;;;;;;1.92;0.82;;;16.00;92.10;;;;;;5001477;28;20069;-37
2022/07/29 02:43:38;;;;;;;2.75;0.82;;;15.90;92.10;;;;;;5010848;28;20528;-40
2022/07/29 02:46:07;;;;;;;3.40;0.77;;;15.90;92.50;;;;;;5011038;28;20042;-39
2022/07/29 02:48:43;;;;;;;2.35;0.70;;;16.00;92.10;;;;;;5010796;28;20120;-38
2022/07/29 02:51:18;;;;;;;2.90;0.70;;;15.90;92.20;;;;;;5010728;28;20077;-37
2022/07/29 02:53:50;;;;;;;3.10;0.52;;;16.00;92.30;;;;;;5007209;28;20534;-39
2022/07/29 02:56:19;;;;;;;2.35;0.70;;;15.90;92.20;;;;;;5006445;28;20046;-36
2022/07/29 02:58:55;;;;;;;1.73;0.60;;;15.90;92.40;;;;;;5006509;28;20046;-40
2022/07/29 03:01:23;;;;;;;3.60;0.60;;;15.90;93.00;;;;;;5010758;28;20053;-40
2022/07/29 03:03:52;;;;;;;2.13;0.60;;;15.90;92.50;;;;;;5010427;28;20113;-37
2022/07/29 03:06:20;;;;;;;1.10;0.60;;;15.90;92.50;;;;;;5010573;28;20356;-37
2022/07/29 03:08:47;;;;;;;1.90;0.80;;;15.90;92.60;;;;;;5009017;28;20042;-38
2022/07/29 03:11:14;;;;;;;2.20;0.60;;;15.90;92.70;;;;;;5010315;28;20120;-38
2022/07/29 03:13:40;;;;;;;1.30;0.50;;;15.90;93.00;;;;;;5015807;28;20057;-38
2022/07/29 03:16:08;;;;;;;2.97;0.60;;;15.90;92.80;;;;;;5009729;28;20042;-38
2022/07/29 03:18:34;;;;;;;1.52;0.52;;;15.80;92.70;;;;;;5010327;28;20065;-38
2022/07/29 03:21:00;;;;;;;2.05;0.60;;;15.80;92.80;;;;;;5010196;28;20052;-37
2022/07/29 03:23:27;;;;;;;5.35;0.85;;;15.80;93.00;;;;;;5010374;28;20049;-36
2022/07/29 03:25:54;;;;;;;4.80;0.95;;;15.80;93.10;;;;;;5003750;28;20510;-38
2022/07/29 03:28:20;;;;;;;2.38;0.73;;;15.70;93.00;;;;;;5010105;28;20391;-38
2022/07/29 03:30:46;;;;;;;2.20;0.60;;;15.70;93.30;;;;;;5010394;28;20077;-40
2022/07/29 03:33:12;;;;;;;2.97;0.98;;;15.70;93.10;;;;;;5001111;28;20121;-38
2022/07/29 03:35:38;;;;;;;5.47;0.60;;;15.70;93.20;;;;;;5010402;28;20124;-38
2022/07/29 03:38:04;;;;;;;2.30;0.80;;;15.70;93.30;;;;;;5009873;28;20048;-35
2022/07/29 03:40:54;;;;;;;2.45;0.90;;;15.70;93.40;;;;;;5009189;28;20037;-40
2022/07/29 03:43:22;;;;;;;1.70;0.75;;;15.60;93.80;;;;;;5006236;28;20072;-38
2022/07/29 03:45:52;;;;;;;1.38;0.60;;;15.60;93.40;;;;;;5009058;28;20101;-38
2022/07/29 03:48:21;;;;;;;2.22;0.50;;;15.60;93.50;;;;;;5010105;28;20041;-38
2022/07/29 03:50:48;;;;;;;1.88;0.57;;;15.60;93.90;;;;;;5010408;28;20447;-38
2022/07/29 03:53:13;;;;;;;2.08;0.60;;;15.60;93.70;;;;;;5009972;28;20402;-38
2022/07/29 03:55:50;;;;;;;1.45;0.50;;;15.60;93.60;;;;;;5009965;28;20046;-38
2022/07/29 03:58:17;;;;;;;2.55;0.65;;;15.50;94.10;;;;;;5005702;28;20042;-38
2022/07/29 04:00:44;;;;;;;1.33;0.57;;;15.50;93.80;;;;;;5005904;28;20049;-38
2022/07/29 04:03:10;;;;;;;2.58;0.60;;;15.40;94.00;;;;;;5009884;28;20057;-38
2022/07/29 04:05:36;;;;;;;1.45;0.60;;;15.40;94.00;;;;;;5009984;28;20037;-38
2022/07/29 04:08:02;;;;;;;2.58;0.45;;;15.40;94.10;;;;;;5008559;28;20053;-37
2022/07/29 04:10:27;;;;;;;2.47;0.68;;;15.40;94.20;;;;;;5009826;28;20048;-38
2022/07/29 04:12:53;;;;;;;3.70;1.08;;;15.40;94.20;;;;;;5009732;28;20049;-38
2022/07/29 04:15:19;;;;;;;3.10;0.60;;;15.40;94.20;;;;;;5010084;28;20483;-38
2022/07/29 04:17:45;;;;;;;1.85;0.40;;;15.40;94.30;;;;;;5007797;28;20104;-39
2022/07/29 04:20:13;;;;;;;3.40;0.95;;;15.30;94.20;;;;;;5009844;28;20057;-38
2022/07/29 04:22:39;;;;;;;2.88;0.73;;;15.30;94.30;;;;;;5009177;28;20042;-38
2022/07/29 04:25:05;;;;;;;3.95;0.60;;;15.30;94.50;;;;;;5009871;28;20100;-38
2022/07/29 04:27:31;;;;;;;1.50;0.70;;;15.30;94.40;;;;;;5009210;28;20479;-38
2022/07/29 04:29:56;;;;;;;1.48;0.47;;;15.30;94.70;;;;;;5009997;28;20120;-38
2022/07/29 04:32:22;;;;;;;0.90;0.50;;;15.30;94.70;;;;;;5001408;28;20073;-38
2022/07/29 04:34:48;;;;;;;3.72;0.60;;;15.30;94.60;;;;;;5009756;28;20045;-38
2022/07/29 04:37:14;;;;;;;1.90;0.55;;;15.30;94.80;;;;;;5009486;28;20069;-39
2022/07/29 04:39:39;;;;;;;3.53;0.63;;;15.30;95.10;;;;;;5004855;28;20435;-38
2022/07/29 04:42:05;;;;;;;2.85;0.50;;;15.30;95.00;;;;;;5012475;28;20045;-40
2022/07/29 04:44:31;;;;;;;2.72;0.77;;;15.30;95.10;;;;;;5012116;28;20045;-40
2022/07/29 04:46:57;;;;;;;1.75;0.73;;;15.30;95.00;;;;;;5010352;28;20132;-38
2022/07/29 04:49:23;;;;;;;1.88;0.80;;;15.30;95.10;;;;;;5004302;28;20038;-38
2022/07/29 04:51:49;;;;;;;2.28;0.60;;;15.30;95.10;;;;;;5009564;28;20053;-38
2022/07/29 04:54:14;;;;;;;3.10;0.60;;;15.30;95.30;;;;;;5013269;28;20056;-38
2022/07/29 04:56:41;;;;;;;0.80;0.40;;;15.30;95.20;;;;;;5012923;28;20058;-41
2022/07/29 04:59:07;;;;;;;4.18;0.70;;;15.40;95.00;;;;;;5007811;28;20034;-38
2022/07/29 05:01:32;;;;;;;2.92;0.65;;;15.40;95.00;;;;;;5013008;28;20038;-38
2022/07/29 05:03:58;;;;;;;1.58;0.60;;;15.40;95.20;;;;;;4999878;28;20072;-38
2022/07/29 05:06:24;;;;;;;2.33;0.50;;;15.50;95.10;;;;;;5012636;28;20041;-38
2022/07/29 05:08:50;;;;;;;1.73;0.50;;;15.50;94.90;;;;;;5028356;28;20082;-38
2022/07/29 05:11:15;;;;;;;2.80;0.60;;;15.50;94.90;;;;;;4992188;28;20495;-40
2022/07/29 05:13:41;;;;;;;1.83;0.57;;;15.60;94.90;;;;;;4996795;28;20495;-40
2022/07/29 05:16:08;;;;;;;2.83;0.60;;;15.60;94.90;;;;;;5000226;28;20042;-40
2022/07/29 05:18:34;;;;;;;1.23;0.60;;;15.70;94.90;;;;;;5010735;28;20049;-38
2022/07/29 05:20:59;;;;;;;2.13;0.70;;;15.70;94.60;;;;;;5012600;28;20467;-38
2022/07/29 05:23:25;;;;;;;0.98;0.50;;;15.80;94.60;;;;;;5012980;28;20096;-40
2022/07/29 05:25:51;;;;;;;3.00;0.60;;;15.80;94.50;;;;;;5012848;28;20049;-38
2022/07/29 05:28:17;;;;;;;1.83;0.70;;;15.80;94.50;;;;;;5011499;28;20030;-38
2022/07/29 05:30:44;;;;;;;3.42;0.70;;;15.90;94.40;;;;;;5012539;28;20522;-37
2022/07/29 05:33:10;;;;;;;1.80;0.63;;;16.00;94.30;;;;;;5004881;28;20467;-40
2022/07/29 05:35:36;;;;;;;2.45;0.70;;;16.00;94.20;;;;;;5011367;28;20038;-36
2022/07/29 05:38:03;;;;;;;2.25;0.70;;;16.00;94.20;;;;;;5010086;28;20105;-38
2022/07/29 05:40:28;;;;;;;2.33;0.60;;;16.10;94.10;;;;;;5011248;28;20501;-38
2022/07/29 05:42:54;;;;;;;2.30;0.65;;;16.10;93.90;;;;;;5012317;28;20045;-38
2022/07/29 05:45:20;;;;;;;2.40;0.75;;;16.20;93.80;;;;;;4994531;28;20428;-38
2022/07/29 05:47:46;;;;;;;3.90;0.60;;;16.30;93.80;;;;;;5010919;28;20041;-38
2022/07/29 05:50:12;;;;;;;2.17;0.68;;;16.30;93.70;;;;;;5011175;28;20046;-38
2022/07/29 05:52:38;;;;;;;2.88;0.73;;;16.40;93.50;;;;;;5003230;28;20041;-38
2022/07/29 05:55:05;;;;;;;3.55;0.80;;;16.50;93.30;;;;;;5011846;28;20042;-36
2022/07/29 05:57:31;;;;;;;2.20;0.73;;;16.60;93.10;;;;;;5008613;28;20061;-38
2022/07/29 05:59:57;;;;;;;1.92;0.60;;;16.60;93.10;;;;;;5010456;28;20046;-38
2022/07/29 06:02:23;;;;;;;2.38;0.80;;;16.60;93.00;;;;;;5011747;28;20045;-38
2022/07/29 06:04:49;;;;;;;1.75;0.50;;;16.60;93.00;;;;;;5006987;28;20565;-38
2022/07/29 06:07:16;;;;;;;4.82;0.70;;;16.60;92.90;;;;;;5007984;28;20045;-38
2022/07/29 06:09:42;;;;;;;4.90;0.85;;;16.60;93.00;;;;;;5005290;28;20046;-38
2022/07/29 06:12:08;;;;;;;3.38;0.60;;;16.50;92.90;;;;;;5005812;28;20528;-39
2022/07/29 06:14:34;;;;;;;1.88;0.60;;;16.50;92.90;;;;;;5011094;28;20048;-38
2022/07/29 06:17:00;;;;;;;2.25;0.70;;;16.40;93.00;;;;;;5011378;28;20053;-38
2022/07/29 06:19:26;;;;;;;3.17;0.70;;;16.40;93.10;;;;;;5011599;28;20045;-38
2022/07/29 06:21:52;;;;;;;1.75;0.60;;;16.40;93.20;;;;;;5011344;28;20499;-38
2022/07/29 06:24:17;;;;;;;3.88;0.63;;;16.40;93.20;;;;;;5008638;28;20045;-38
2022/07/29 06:26:43;;;;;;;2.72;0.80;;;16.40;93.20;;;;;;5002574;28;20104;-38
2022/07/29 06:29:12;;;;;;;1.63;0.70;;;16.40;93.30;;;;;;5011217;28;20125;-40
2022/07/29 06:31:38;;;;;;;2.55;0.70;;;16.30;93.20;;;;;;5011453;28;20476;-38
2022/07/29 06:34:04;;;;;;;2.45;0.60;;;16.40;93.20;;;;;;5011548;28;20056;-44
2022/07/29 06:36:30;;;;;;;4.43;0.60;;;16.30;93.20;;;;;;5010698;28;20511;-40
2022/07/29 06:38:56;;;;;;;3.05;0.98;;;16.30;93.50;;;;;;5008859;28;20606;-38
2022/07/29 06:41:22;;;;;;;2.22;0.70;;;16.30;93.50;;;;;;5004314;28;20112;-38
2022/07/29 06:43:49;;;;;;;5.28;1.10;;;16.30;93.60;;;;;;5009948;28;20081;-38
2022/07/29 06:46:19;;;;;;;3.42;0.65;;;16.30;93.80;;;;;;5011076;28;20034;-37
2022/07/29 06:48:45;;;;;;;3.63;0.70;;;16.30;93.70;;;;;;5011176;28;20056;-38
2022/07/29 06:51:11;;;;;;;2.80;0.80;;;16.40;93.70;;;;;;5010497;28;20056;-38
2022/07/29 06:53:38;;;;;;;4.28;0.93;;;16.40;93.70;;;;;;4992041;28;20050;-38
2022/07/29 06:56:06;;;;;;;3.30;0.90;;;16.40;93.60;;;;;;5009088;28;20053;-38
2022/07/29 06:58:31;;;;;;;3.92;0.70;;;16.50;93.80;;;;;;5005798;28;20061;-38
2022/07/29 07:00:58;;;;;;;1.98;0.73;;;16.50;94.20;;;;;;5009183;28;20116;-38
2022/07/29 07:03:24;;;;;;;4.07;0.93;;;16.50;95.00;;;;;;5010876;28;20046;-38
2022/07/29 07:05:51;;;;;;;3.38;0.80;;;16.50;95.10;;;;;;5010442;28;20554;-38
2022/07/29 07:08:17;;;;;;;3.50;0.90;;;16.60;95.50;;;;;;5010803;28;20033;-38
2022/07/29 07:10:43;;;;;;;3.58;0.80;;;16.60;95.50;;;;;;5008992;28;20038;-38
2022/07/29 07:13:09;;;;;;;2.65;0.75;;;16.60;95.50;;;;;;5010593;28;20076;-38
2022/07/29 07:15:36;;;;;;;2.63;0.70;;;16.60;95.70;;;;;;5010466;28;20073;-38
2022/07/29 07:18:03;;;;;;;2.75;1.05;;;16.60;95.80;;;;;;5005286;28;20050;-40
2022/07/29 07:20:28;;;;;;;2.10;0.60;;;16.60;95.80;;;;;;5010186;28;20084;-37
2022/07/29 07:22:54;;;;;;;2.95;1.05;;;16.70;96.10;;;;;;4989080;28;20069;-38
2022/07/29 07:25:20;;;;;;;3.20;0.80;;;16.70;96.50;;;;;;5004899;28;20211;-38
2022/07/29 07:27:46;;;;;;;3.22;1.00;;;16.70;96.50;;;;;;5010026;28;20025;-38
2022/07/29 07:30:12;;;;;;;3.38;0.85;;;16.70;96.70;;;;;;5010324;28;20167;-38
2022/07/29 07:32:37;;;;;;;5.05;0.93;;;16.70;97.30;;;;;;5002529;28;20479;-38
2022/07/29 07:35:05;;;;;;;3.80;0.80;;;16.70;97.30;;;;;;5009254;28;20053;-38
2022/07/29 07:37:31;;;;;;;4.93;1.10;;;16.70;97.60;;;;;;5009894;28;20074;-38
2022/07/29 07:39:57;;;;;;;1.75;0.70;;;16.80;97.70;;;;;;5008376;28;20049;-38
2022/07/29 07:42:23;;;;;;;7.88;0.82;;;16.80;97.70;;;;;;5010134;28;20038;-40
2022/07/29 07:44:49;;;;;;;5.22;1.17;;;16.80;98.20;;;;;;5008804;28;20148;-38
2022/07/29 07:47:19;;;;;;;2.53;1.05;;;16.80;97.60;;;;;;4997886;28;20481;-38
2022/07/29 07:49:46;;;;;;;3.00;1.10;;;16.90;97.50;;;;;;5008967;28;20045;-38
2022/07/29 07:52:12;;;;;;;3.65;1.00;;;17.00;97.60;;;;;;4996565;28;20054;-38
2022/07/29 07:54:38;;;;;;;6.30;1.25;;;17.10;97.70;;;;;;5004784;28;20045;-38
2022/07/29 07:57:03;;;;;;;2.15;1.10;;;17.20;97.90;;;;;;5009644;28;20183;-37
2022/07/29 07:59:29;;;;;;;3.78;1.30;;;17.30;97.90;;;;;;5005085;28;20041;-39
2022/07/29 08:01:55;;;;;;;2.80;1.10;;;17.40;97.50;;;;;;5009529;28;20045;-38
2022/07/29 08:04:20;;;;;;;4.07;1.20;;;17.50;96.90;;;;;;5009850;28;20148;-38
2022/07/29 08:06:46;;;;;;;5.97;1.13;;;17.60;96.70;;;;;;5008584;28;20042;-38
2022/07/29 08:09:12;;;;;;;3.13;1.10;;;17.70;96.60;;;;;;5009779;28;20193;-40
2022/07/29 08:11:38;;;;;;;3.78;1.20;;;17.70;96.10;;;;;;5009533;28;20037;-40
2022/07/29 08:14:03;;;;;;;2.13;1.13;;;17.80;96.00;;;;;;5012586;28;20046;-38
2022/07/29 08:16:29;;;;;;;2.17;1.20;;;17.90;95.80;;;;;;5013374;28;20129;-38
2022/07/29 08:18:56;;;;;;;4.47;1.27;;;17.90;95.70;;;;;;5013814;28;20050;-41
2022/07/29 08:21:23;;;;;;;2.67;1.02;;;18.00;95.40;;;;;;5007949;28;20050;-38
2022/07/29 08:23:52;;;;;;;3.25;1.10;;;18.00;95.20;;;;;;5008637;28;20081;-38
2022/07/29 08:26:20;;;;;;;4.55;1.08;;;18.10;94.90;;;;;;5012988;28;20069;-38
2022/07/29 08:28:49;;;;;;;3.30;0.95;;;18.10;94.50;;;;;;5012508;28;20125;-38
2022/07/29 08:31:15;;;;;;;7.88;1.60;;;18.10;94.50;;;;;;5013374;28;20049;-38
2022/07/29 08:33:41;;;;;;;2.60;0.85;;;18.10;94.50;;;;;;5007457;28;20164;-38
2022/07/29 08:36:07;;;;;;;2.03;0.93;;;18.20;94.70;;;;;;5012886;28;20088;-38
2022/07/29 08:38:34;;;;;;;3.65;0.82;;;18.20;94.40;;;;;;5009204;28;20056;-40
2022/07/29 08:41:03;;;;;;;5.95;1.20;;;18.20;94.40;;;;;;5003943;28;20049;-40
2022/07/29 08:43:29;;;;;;;2.63;1.08;;;18.20;94.30;;;;;;5013276;28;20483;-38
2022/07/29 08:45:54;;;;;;;3.25;1.10;;;18.30;94.10;;;;;;5004609;28;20049;-38
2022/07/29 08:48:24;;;;;;;2.47;1.02;;;18.30;93.90;;;;;;5009546;28;20038;-38
2022/07/29 08:50:55;;;;;;;2.08;0.88;;;18.20;93.60;;;;;;5006107;28;20048;-38
2022/07/29 08:53:23;;;;;;;4.75;1.10;;;18.30;93.60;;;;;;5005816;28;20064;-38
2022/07/29 08:55:50;;;;;;;3.60;1.10;;;18.30;93.50;;;;;;5004048;28;20633;-36
2022/07/29 08:58:17;;;;;;;3.25;1.20;;;18.30;93.30;;;;;;5007708;28;20050;-38
2022/07/29 09:00:45;;;;;;;3.13;1.00;;;18.40;93.30;;;;;;5012612;28;20042;-38
2022/07/29 09:03:18;;;;;;;3.05;0.98;;;18.50;93.40;;;;;;5013022;28;20038;-38
2022/07/29 09:05:45;;;;;;;;;;;18.70;93.10;;;;;;5013193;28;20100;-38
2022/07/29 09:08:11;;;;;;;2.88;0.98;;;18.70;92.90;;;;;;5012525;28;20441;-38
2022/07/29 09:10:37;;;;;;;3.53;1.10;;;18.90;92.90;;;;;;5007362;28;20459;-38
2022/07/29 09:13:03;;;;;;;3.03;1.15;;;19.00;92.70;;;;;;5006698;28;20042;-38
2022/07/29 09:15:28;;;;;;;3.70;1.17;;;19.10;91.90;;;;;;5022190;28;20448;-35
2022/07/29 09:17:56;;;;;;;3.17;1.20;;;19.20;91.40;;;;;;5012409;28;20064;-38
2022/07/29 09:20:22;;;;;;;2.20;0.95;;;19.30;91.10;;;;;;5012774;28;20046;-37
2022/07/29 09:22:50;;;;;;;3.58;1.00;;;19.40;91.10;;;;;;5012294;28;20519;-38
2022/07/29 09:25:36;;;;;;;3.72;1.00;;;19.50;91.00;;;;;;5011643;28;20184;-38
2022/07/29 09:28:17;;;;;;;2.70;0.95;;;19.60;90.80;;;;;;5010184;28;20446;-38
2022/07/29 09:30:53;;;;;;;5.95;1.10;;;19.70;90.90;;;;;;5011022;28;20068;-38
2022/07/29 09:33:20;;;;;;;3.00;1.17;;;19.90;90.40;;;;;;5005630;28;20112;-38
2022/07/29 09:35:45;;;;;;;4.95;1.25;;;20.00;90.10;;;;;;5011252;28;20529;-38
2022/07/29 09:38:13;;;;;;;3.65;0.90;;;20.20;89.60;;;;;;5010935;28;20126;-38
2022/07/29 09:40:39;;;;;;;2.47;1.10;;;20.40;89.10;;;;;;4998986;28;20037;-38
2022/07/29 09:43:12;;;;;;;4.65;1.10;;;20.50;88.50;;;;;;5010777;28;20463;-38
2022/07/29 09:45:38;;;;;;;3.75;1.42;;;20.60;87.80;;;;;;5010789;28;20042;-38
2022/07/29 09:48:20;;;;;;;5.05;1.20;;;20.60;87.20;;;;;;5011986;28;20042;-38
2022/07/29 09:50:49;;;;;;;2.47;1.10;;;20.60;86.20;;;;;;4997916;28;20046;-38
2022/07/29 09:53:37;;;;;;;1.98;1.00;;;20.70;87.00;;;;;;5005469;28;20153;-37
2022/07/29 09:56:04;;;;;;;4.68;0.93;;;20.70;86.30;;;;;;5005414;28;20041;-38
2022/07/29 09:58:33;;;;;;;4.10;1.20;;;20.70;86.20;;;;;;5007439;28;20050;-38
2022/07/29 10:00:59;;;;;;;2.13;1.00;;;20.80;86.20;;;;;;5007326;28;20045;-38
2022/07/29 10:03:25;;;;;;;3.03;1.15;;;20.90;86.50;;;;;;5011913;28;20050;-38
2022/07/29 10:06:10;;;;;;;6.20;1.67;;;21.10;85.80;;;;;;5010232;28;20092;-38
2022/07/29 10:08:36;;;;;;;5.07;1.40;;;21.20;83.60;;;;;;5011719;28;20042;-39
2022/07/29 10:11:12;;;;;;;6.30;1.40;;;21.30;84.00;;;;;;5006917;28;20117;-38
2022/07/29 10:13:39;;;;;;;3.17;1.52;;;21.30;83.00;;;;;;5004817;28;20562;-38
2022/07/29 10:16:05;;;;;;;3.13;1.40;;;21.30;82.70;;;;;;5009971;28;20236;-38
2022/07/29 10:18:32;;;;;;;2.50;1.10;;;21.30;83.80;;;;;;5003520;28;20134;-38
2022/07/29 10:21:00;;;;;;;4.55;0.90;;;21.40;82.90;;;;;;5011088;28;20077;-38
2022/07/29 10:23:28;;;;;;;3.30;1.15;;;21.50;82.50;;;;;;5011474;28;20051;-38
2022/07/29 10:25:54;;;;;;;5.50;0.93;;;21.60;82.40;;;;;;5008374;28;20117;-38
2022/07/29 10:28:19;;;;;;;2.50;1.15;;;21.70;82.00;;;;;;5011390;28;20034;-38
2022/07/29 10:30:48;;;;;;;3.08;1.40;;;21.80;81.10;;;;;;5011388;28;20355;-38
2022/07/29 10:33:41;;;;;;;2.08;1.08;;;21.80;80.40;;;;;;4997595;28;20042;-39
2022/07/29 10:36:24;;;;;;;4.25;1.30;;;21.90;80.80;;;;;;5002374;28;20072;-38
2022/07/29 10:39:25;;;;;;;3.90;1.30;;;22.00;79.90;;;;;;5009063;28;20495;-38
2022/07/29 10:42:17;;;;;;;3.03;0.85;;;22.00;78.50;;;;;;4986776;28;20415;-40
2022/07/29 10:44:44;;;;;;;2.55;1.25;;;22.20;78.00;;;;;;5011417;28;20520;-39
2022/07/29 10:47:25;;;;;;;4.88;1.40;;;22.30;78.50;;;;;;5009777;28;20061;-38
2022/07/29 10:50:02;;;;;;;2.45;1.20;;;22.40;76.60;;;;;;5009606;28;20395;-38
2022/07/29 10:52:49;;;;;;;5.53;1.42;;;22.50;75.50;;;;;;5001279;28;20065;-39
2022/07/29 10:55:36;;;;;;;3.60;1.27;;;22.50;73.00;;;;;;5010860;28;20049;-38
2022/07/29 10:58:18;;;;;;;3.53;1.10;;;22.50;74.60;;;;;;5004782;28;20125;-39
2022/07/29 11:00:46;;;;;;;3.95;1.40;;;22.60;74.70;;;;;;5010959;28;20505;-40
2022/07/29 11:03:40;;;;;;;3.83;1.50;;;22.70;74.20;;;;;;5010659;28;20045;-39
2022/07/29 11:06:06;;;;;;;3.33;1.50;;;22.80;71.70;;;;;;5005195;28;20329;-41
2022/07/29 11:08:32;;;;;;;6.45;1.27;;;23.00;70.70;;;;;;5010773;28;20562;-41
2022/07/29 11:11:19;;;;;;;3.67;1.38;;;22.90;70.00;;;;;;5010528;28;20038;-39
2022/07/29 11:13:50;;;;;;;4.68;1.80;;;22.90;68.60;;;;;;5010541;28;20045;-37
2022/07/29 11:16:18;;;;;;;9.60;2.17;;;22.90;68.00;;;;;;5009306;28;20168;-39
2022/07/29 11:19:11;;;;;;;4.05;1.52;;;22.90;69.40;;;;;;5010431;28;20564;-39
2022/07/29 11:21:39;;;;;;;4.00;1.33;;;23.20;68.20;;;;;;5001293;28;20117;-38
2022/07/29 11:24:32;;;;;;;2.80;0.95;;;23.40;65.10;;;;;;5003899;28;20428;-39
2022/07/29 11:27:20;;;;;;;5.45;1.17;;;23.60;65.10;;;;;;5004671;28;20407;-39
2022/07/29 11:29:55;;;;;;;5.38;1.58;;;24.00;60.90;;;;;;5010420;28;20069;-39
2022/07/29 11:32:22;;;;;;;3.78;1.20;;;24.30;59.30;;;;;;5010319;28;20134;-38
2022/07/29 11:34:49;;;;;;;5.60;1.42;;;24.70;60.90;;;;;;5010388;28;20100;-38
2022/07/29 11:37:16;;;;;;;2.25;0.80;;;25.00;57.60;;;;;;5010204;28;20046;-39
2022/07/29 11:40:09;;;;;;;5.68;1.33;;;25.20;56.70;;;;;;5008027;28;20041;-38
2022/07/29 11:42:35;;;;;;;5.20;1.00;;;25.40;54.40;;;;;;4998908;28;20085;-39
2022/07/29 11:45:09;;;;;;;7.57;1.10;;;25.40;53.30;;;;;;5010187;28;20061;-38
2022/07/29 11:47:40;;;;;;;3.95;1.30;;;25.50;53.00;;;;;;5008086;28;20045;-39
2022/07/29 11:50:12;;;;;;;2.55;1.00;;;25.60;52.50;;;;;;5010254;28;20042;-38
2022/07/29 11:52:45;;;;;;;3.13;1.05;;;25.60;50.70;;;;;;5002069;28;20104;-39
2022/07/29 11:55:16;;;;;;;3.83;1.25;;;25.70;50.40;;;;;;5010281;28;20120;-39
2022/07/29 11:57:52;;;;;;;8.27;1.50;;;25.80;50.20;;;;;;5002095;28;20395;-38
2022/07/29 12:00:28;;;;;;;4.32;1.45;;;25.80;49.20;;;;;;5010095;28;20180;-40
2022/07/29 12:02:55;;;;;;;5.65;1.10;;;25.90;48.30;;;;;;5009825;28;20121;-38
2022/07/29 12:05:29;;;;;;;7.40;1.15;;;26.00;48.70;;;;;;5010039;28;20046;-38
2022/07/29 12:07:55;;;;;;;5.03;1.23;;;26.10;47.60;;;;;;5009585;28;20454;-38
2022/07/29 12:10:21;;;;;;;3.25;1.10;;;26.10;46.80;;;;;;5010097;28;20050;-38
2022/07/29 12:12:51;;;;;;;6.55;1.30;;;26.10;47.00;;;;;;5009311;28;20070;-38
2022/07/29 12:15:20;;;;;;;4.65;1.40;;;26.30;46.70;;;;;;5005645;28;20043;-38
2022/07/29 12:17:47;;;;;;;5.20;1.20;;;26.30;46.20;;;;;;5008534;28;20526;-38
2022/07/29 12:20:12;;;;;;;4.03;1.08;;;26.30;45.90;;;;;;5010270;28;20045;-38
2022/07/29 12:22:43;;;;;;;3.33;0.93;;;26.40;45.90;;;;;;5009530;28;20487;-39
2022/07/29 12:25:15;;;;;;;3.53;1.17;;;26.50;45.80;;;;;;5009837;28;20045;-52
2022/07/29 12:27:43;;;;;;;1.98;0.85;;;26.60;45.20;;;;;;5004668;28;20077;-40
2022/07/29 12:30:14;;;;;;;2.20;1.00;;;26.70;45.30;;;;;;5009764;28;20104;-38
2022/07/29 12:32:46;;;;;;;4.13;1.40;;;26.70;45.00;;;;;;5002998;28;20509;-40
2022/07/29 12:35:17;;;;;;;4.57;1.13;;;26.80;45.50;;;;;;5009568;28;20097;-39
2022/07/29 12:37:45;;;;;;;5.55;1.70;;;27.00;45.50;;;;;;5009502;28;20100;-40
2022/07/29 12:40:15;;;;;;;2.35;1.17;;;27.20;44.60;;;;;;4999845;28;20033;-38
2022/07/29 12:42:41;;;;;;;5.13;1.48;;;27.20;44.10;;;;;;5009729;28;20184;-38
2022/07/29 12:45:07;;;;;;;3.80;1.70;;;27.10;44.40;;;;;;5009616;28;20483;-38
2022/07/29 12:47:33;;;;;;;4.00;1.50;;;26.90;43.90;;;;;;5009770;28;20045;-38
2022/07/29 12:50:17;;;;;;;3.53;1.63;;;26.70;44.10;;;;;;4999996;28;20348;-40
2022/07/29 12:52:44;;;;;;;3.75;1.70;;;26.60;44.40;;;;;;5009915;28;20145;-38
2022/07/29 12:55:09;;;;;;;7.22;1.90;;;26.40;44.80;;;;;;5009731;28;20034;-40
2022/07/29 12:57:46;;;;;;;3.53;1.90;;;26.50;45.00;;;;;;5005540;28;20522;-38
2022/07/29 13:00:13;;;;;;;2.88;1.30;;;26.60;45.40;;;;;;5006894;28;20052;-38
2022/07/29 13:02:42;;;;;;;4.20;1.63;;;26.80;45.60;;;;;;5012982;28;20041;-38